sensor_id;sensor_type;location;lat;lon;timestamp;temperature;humidity
8820;DHT22;4446;50.876;4.736;2024-02-28T00:01:48;0.90;99.90
8820;DHT22;4446;50.876;4.736;2024-02-28T00:04:14;0.90;99.90
8820;DHT22;4446;50.876;4.736;2024-02-28T00:06:41;0.80;99.90
8820;DHT22;4446;50.876;4.736;2024-02-28T00:09:10;0.80;99.90
8820;DHT22;4446;50.876;4.736;2024-02-28T00:11:42;0.80;99.90
8820;DHT22;4446;50.876;4.736;2024-02-28T00:14:09;0.80;99.90
8820;DHT22;4446;50.876;4.736;2024-02-28T00:16:36;0.80;99.90
8820;DHT22;4446;50.876;4.736;2024-02-28T00:19:04;0.90;99.90
8820;DHT22;4446;50.876;4.736;2024-02-28T00:21:31;0.90;99.90
8820;DHT22;4446;50.876;4.736;2024-02-28T00:23:58;1.00;99.90
8820;DHT22;4446;50.876;4.736;2024-02-28T00:26:25;1.00;99.90
8820;DHT22;4446;50.876;4.736;2024-02-28T00:28:52;1.00;99.90
8820;DHT22;4446;50.876;4.736;2024-02-28T00:31:19;1.20;99.90
8820;DHT22;4446;50.876;4.736;2024-02-28T00:33:47;1.10;99.90
8820;DHT22;4446;50.876;4.736;2024-02-28T00:36:15;1.10;99.90
8820;DHT22;4446;50.876;4.736;2024-02-28T00:38:42;1.10;99.90
8820;DHT22;4446;50.876;4.736;2024-02-28T00:41:09;1.20;99.90
8820;DHT22;4446;50.876;4.736;2024-02-28T00:43:36;1.30;99.90
8820;DHT22;4446;50.876;4.736;2024-02-28T00:46:03;1.30;99.90
8820;DHT22;4446;50.876;4.736;2024-02-28T00:48:30;1.30;99.90
8820;DHT22;4446;50.876;4.736;2024-02-28T00:50:57;1.20;99.90
8820;DHT22;4446;50.876;4.736;2024-02-28T00:53:25;1.10;99.90
8820;DHT22;4446;50.876;4.736;2024-02-28T00:55:52;1.00;99.90
8820;DHT22;4446;50.876;4.736;2024-02-28T00:58:20;1.00;99.90
8820;DHT22;4446;50.876;4.736;2024-02-28T01:00:48;0.80;99.90
8820;DHT22;4446;50.876;4.736;2024-02-28T01:03:15;0.80;99.90
8820;DHT22;4446;50.876;4.736;2024-02-28T01:05:44;0.80;99.90
8820;DHT22;4446;50.876;4.736;2024-02-28T01:08:11;0.90;99.90
8820;DHT22;4446;50.876;4.736;2024-02-28T01:10:39;0.90;99.90
8820;DHT22;4446;50.876;4.736;2024-02-28T01:13:06;0.80;99.90
8820;DHT22;4446;50.876;4.736;2024-02-28T01:15:33;0.90;99.90
8820;DHT22;4446;50.876;4.736;2024-02-28T01:18:00;0.90;99.90
8820;DHT22;4446;50.876;4.736;2024-02-28T01:20:27;0.90;99.90
8820;DHT22;4446;50.876;4.736;2024-02-28T01:22:54;0.80;99.90
8820;DHT22;4446;50.876;4.736;2024-02-28T01:25:21;0.80;99.90
8820;DHT22;4446;50.876;4.736;2024-02-28T01:27:49;0.70;99.90
8820;DHT22;4446;50.876;4.736;2024-02-28T01:30:17;0.60;99.90
8820;DHT22;4446;50.876;4.736;2024-02-28T01:32:44;0.50;99.90
8820;DHT22;4446;50.876;4.736;2024-02-28T01:35:11;0.40;99.90
8820;DHT22;4446;50.876;4.736;2024-02-28T01:37:39;0.40;99.90
8820;DHT22;4446;50.876;4.736;2024-02-28T01:40:07;0.40;99.90
8820;DHT22;4446;50.876;4.736;2024-02-28T01:42:34;0.40;99.90
8820;DHT22;4446;50.876;4.736;2024-02-28T01:45:04;0.30;99.90
8820;DHT22;4446;50.876;4.736;2024-02-28T01:47:31;0.30;99.90
8820;DHT22;4446;50.876;4.736;2024-02-28T01:49:58;0.20;99.90
8820;DHT22;4446;50.876;4.736;2024-02-28T01:52:25;0.30;99.90
8820;DHT22;4446;50.876;4.736;2024-02-28T01:54:52;0.40;99.90
8820;DHT22;4446;50.876;4.736;2024-02-28T01:57:19;0.50;99.90
8820;DHT22;4446;50.876;4.736;2024-02-28T01:59:46;0.50;99.90
8820;DHT22;4446;50.876;4.736;2024-02-28T02:02:15;0.50;99.90
8820;DHT22;4446;50.876;4.736;2024-02-28T02:04:42;0.50;99.90
8820;DHT22;4446;50.876;4.736;2024-02-28T02:07:09;0.60;99.90
8820;DHT22;4446;50.876;4.736;2024-02-28T02:09:36;0.60;99.90
8820;DHT22;4446;50.876;4.736;2024-02-28T02:12:03;0.50;99.90
8820;DHT22;4446;50.876;4.736;2024-02-28T02:14:30;0.50;99.90
8820;DHT22;4446;50.876;4.736;2024-02-28T02:16:57;0.70;99.90
8820;DHT22;4446;50.876;4.736;2024-02-28T02:19:25;0.70;99.90
8820;DHT22;4446;50.876;4.736;2024-02-28T02:21:53;0.60;99.90
8820;DHT22;4446;50.876;4.736;2024-02-28T02:24:22;0.60;99.90
8820;DHT22;4446;50.876;4.736;2024-02-28T02:26:49;0.60;99.90
8820;DHT22;4446;50.876;4.736;2024-02-28T02:29:17;0.60;99.90
8820;DHT22;4446;50.876;4.736;2024-02-28T02:31:44;0.60;99.90
8820;DHT22;4446;50.876;4.736;2024-02-28T02:34:11;0.70;99.90
8820;DHT22;4446;50.876;4.736;2024-02-28T02:36:38;0.80;99.90
8820;DHT22;4446;50.876;4.736;2024-02-28T02:39:05;0.70;99.90
8820;DHT22;4446;50.876;4.736;2024-02-28T02:41:34;0.70;99.90
8820;DHT22;4446;50.876;4.736;2024-02-28T02:44:01;0.80;99.90
8820;DHT22;4446;50.876;4.736;2024-02-28T02:46:28;0.90;99.90
8820;DHT22;4446;50.876;4.736;2024-02-28T02:48:55;0.80;99.90
8820;DHT22;4446;50.876;4.736;2024-02-28T02:51:22;0.80;99.90
8820;DHT22;4446;50.876;4.736;2024-02-28T02:53:49;0.90;99.90
8820;DHT22;4446;50.876;4.736;2024-02-28T02:56:16;0.90;99.90
8820;DHT22;4446;50.876;4.736;2024-02-28T02:58:44;0.90;99.90
8820;DHT22;4446;50.876;4.736;2024-02-28T03:01:11;0.80;99.90
8820;DHT22;4446;50.876;4.736;2024-02-28T03:03:38;0.80;99.90
8820;DHT22;4446;50.876;4.736;2024-02-28T03:06:05;0.70;99.90
8820;DHT22;4446;50.876;4.736;2024-02-28T03:08:32;0.50;99.90
8820;DHT22;4446;50.876;4.736;2024-02-28T03:10:59;0.50;99.90
8820;DHT22;4446;50.876;4.736;2024-02-28T03:13:26;0.50;99.90
8820;DHT22;4446;50.876;4.736;2024-02-28T03:15:55;0.60;99.90
8820;DHT22;4446;50.876;4.736;2024-02-28T03:18:22;0.50;99.90
8820;DHT22;4446;50.876;4.736;2024-02-28T03:20:49;0.40;99.90
8820;DHT22;4446;50.876;4.736;2024-02-28T03:23:16;0.20;99.90
8820;DHT22;4446;50.876;4.736;2024-02-28T03:25:43;0.10;99.90
8820;DHT22;4446;50.876;4.736;2024-02-28T03:28:10;0.10;99.90
8820;DHT22;4446;50.876;4.736;2024-02-28T03:30:37;0.00;99.90
8820;DHT22;4446;50.876;4.736;2024-02-28T03:33:06;-0.10;99.90
8820;DHT22;4446;50.876;4.736;2024-02-28T03:35:33;-0.10;99.90
8820;DHT22;4446;50.876;4.736;2024-02-28T03:38:00;-0.10;99.90
8820;DHT22;4446;50.876;4.736;2024-02-28T03:40:27;-0.10;99.90
8820;DHT22;4446;50.876;4.736;2024-02-28T03:42:54;-0.10;99.90
8820;DHT22;4446;50.876;4.736;2024-02-28T03:45:21;-0.10;99.90
8820;DHT22;4446;50.876;4.736;2024-02-28T03:47:48;-0.10;99.90
8820;DHT22;4446;50.876;4.736;2024-02-28T03:50:16;-0.20;99.90
8820;DHT22;4446;50.876;4.736;2024-02-28T03:52:43;0.00;99.90
8820;DHT22;4446;50.876;4.736;2024-02-28T03:55:10;0.10;99.90
8820;DHT22;4446;50.876;4.736;2024-02-28T03:57:37;0.10;99.90
8820;DHT22;4446;50.876;4.736;2024-02-28T04:00:05;0.10;99.90
8820;DHT22;4446;50.876;4.736;2024-02-28T04:02:33;0.20;99.90
8820;DHT22;4446;50.876;4.736;2024-02-28T04:05:00;0.20;99.90
8820;DHT22;4446;50.876;4.736;2024-02-28T04:07:28;0.20;99.90
8820;DHT22;4446;50.876;4.736;2024-02-28T04:09:55;0.10;99.90
8820;DHT22;4446;50.876;4.736;2024-02-28T04:12:22;0.00;99.90
8820;DHT22;4446;50.876;4.736;2024-02-28T04:14:49;0.10;99.90
8820;DHT22;4446;50.876;4.736;2024-02-28T04:17:16;0.10;99.90
8820;DHT22;4446;50.876;4.736;2024-02-28T04:19:42;0.10;99.90
8820;DHT22;4446;50.876;4.736;2024-02-28T04:22:09;0.00;99.90
8820;DHT22;4446;50.876;4.736;2024-02-28T04:24:38;0.00;99.90
8820;DHT22;4446;50.876;4.736;2024-02-28T04:27:05;0.00;99.90
8820;DHT22;4446;50.876;4.736;2024-02-28T04:29:31;0.10;99.90
8820;DHT22;4446;50.876;4.736;2024-02-28T04:31:58;0.10;99.90
8820;DHT22;4446;50.876;4.736;2024-02-28T04:34:25;0.10;99.90
8820;DHT22;4446;50.876;4.736;2024-02-28T04:36:52;0.10;99.90
8820;DHT22;4446;50.876;4.736;2024-02-28T04:39:19;0.00;99.90
8820;DHT22;4446;50.876;4.736;2024-02-28T04:41:47;0.10;99.90
8820;DHT22;4446;50.876;4.736;2024-02-28T04:44:14;0.10;99.90
8820;DHT22;4446;50.876;4.736;2024-02-28T04:46:41;0.10;99.90
8820;DHT22;4446;50.876;4.736;2024-02-28T04:49:08;0.00;99.90
8820;DHT22;4446;50.876;4.736;2024-02-28T04:51:35;0.00;99.90
8820;DHT22;4446;50.876;4.736;2024-02-28T04:54:02;0.00;99.90
8820;DHT22;4446;50.876;4.736;2024-02-28T04:56:29;0.00;99.90
8820;DHT22;4446;50.876;4.736;2024-02-28T04:58:57;0.00;99.90
8820;DHT22;4446;50.876;4.736;2024-02-28T05:01:24;0.00;99.90
8820;DHT22;4446;50.876;4.736;2024-02-28T05:03:51;0.00;99.90
8820;DHT22;4446;50.876;4.736;2024-02-28T05:06:18;0.00;99.90
8820;DHT22;4446;50.876;4.736;2024-02-28T05:08:45;0.00;99.90
8820;DHT22;4446;50.876;4.736;2024-02-28T05:11:12;0.00;99.90
8820;DHT22;4446;50.876;4.736;2024-02-28T05:13:39;0.00;99.90
8820;DHT22;4446;50.876;4.736;2024-02-28T05:16:13;0.00;99.90
8820;DHT22;4446;50.876;4.736;2024-02-28T05:18:40;0.00;99.90
8820;DHT22;4446;50.876;4.736;2024-02-28T05:21:07;0.00;99.90
8820;DHT22;4446;50.876;4.736;2024-02-28T05:23:34;0.10;99.90
8820;DHT22;4446;50.876;4.736;2024-02-28T05:26:01;0.20;99.90
8820;DHT22;4446;50.876;4.736;2024-02-28T05:28:29;0.20;99.90
8820;DHT22;4446;50.876;4.736;2024-02-28T05:30:56;0.20;99.90
8820;DHT22;4446;50.876;4.736;2024-02-28T05:33:25;0.20;99.90
8820;DHT22;4446;50.876;4.736;2024-02-28T05:35:52;0.20;99.90
8820;DHT22;4446;50.876;4.736;2024-02-28T05:38:19;0.10;99.90
8820;DHT22;4446;50.876;4.736;2024-02-28T05:40:46;0.10;99.90
8820;DHT22;4446;50.876;4.736;2024-02-28T05:43:13;-0.10;99.90
8820;DHT22;4446;50.876;4.736;2024-02-28T05:45:40;-0.20;99.90
8820;DHT22;4446;50.876;4.736;2024-02-28T05:48:07;-0.20;99.90
8820;DHT22;4446;50.876;4.736;2024-02-28T05:50:35;-0.10;99.90
8820;DHT22;4446;50.876;4.736;2024-02-28T05:53:02;-0.10;99.90
8820;DHT22;4446;50.876;4.736;2024-02-28T05:55:29;-0.10;99.90
8820;DHT22;4446;50.876;4.736;2024-02-28T05:57:56;-0.20;99.90
8820;DHT22;4446;50.876;4.736;2024-02-28T06:00:23;-0.20;99.90
8820;DHT22;4446;50.876;4.736;2024-02-28T06:02:50;-0.20;99.90
8820;DHT22;4446;50.876;4.736;2024-02-28T06:05:18;-0.20;99.90
8820;DHT22;4446;50.876;4.736;2024-02-28T06:07:46;-0.20;99.90
8820;DHT22;4446;50.876;4.736;2024-02-28T06:10:13;-0.30;99.90
8820;DHT22;4446;50.876;4.736;2024-02-28T06:12:40;-0.20;99.90
8820;DHT22;4446;50.876;4.736;2024-02-28T06:15:07;-0.20;99.90
8820;DHT22;4446;50.876;4.736;2024-02-28T06:17:34;-0.20;99.90
8820;DHT22;4446;50.876;4.736;2024-02-28T06:20:01;-0.20;99.90
8820;DHT22;4446;50.876;4.736;2024-02-28T06:22:29;-0.10;99.90
8820;DHT22;4446;50.876;4.736;2024-02-28T06:24:57;0.00;99.90
8820;DHT22;4446;50.876;4.736;2024-02-28T06:27:24;0.10;99.90
8820;DHT22;4446;50.876;4.736;2024-02-28T06:29:52;0.10;99.90
8820;DHT22;4446;50.876;4.736;2024-02-28T06:32:19;0.20;99.90
8820;DHT22;4446;50.876;4.736;2024-02-28T06:34:46;0.30;99.90
8820;DHT22;4446;50.876;4.736;2024-02-28T06:37:13;0.30;99.90
8820;DHT22;4446;50.876;4.736;2024-02-28T06:39:40;0.30;99.90
8820;DHT22;4446;50.876;4.736;2024-02-28T06:42:08;0.50;99.90
8820;DHT22;4446;50.876;4.736;2024-02-28T06:44:35;0.50;99.90
8820;DHT22;4446;50.876;4.736;2024-02-28T06:47:03;0.50;99.90
8820;DHT22;4446;50.876;4.736;2024-02-28T06:49:30;0.50;99.90
8820;DHT22;4446;50.876;4.736;2024-02-28T06:51:56;0.60;99.90
8820;DHT22;4446;50.876;4.736;2024-02-28T06:54:26;0.60;99.90
8820;DHT22;4446;50.876;4.736;2024-02-28T06:56:53;0.60;99.90
8820;DHT22;4446;50.876;4.736;2024-02-28T06:59:22;0.70;99.90
8820;DHT22;4446;50.876;4.736;2024-02-28T07:01:49;0.80;99.90
8820;DHT22;4446;50.876;4.736;2024-02-28T07:04:16;1.00;99.90
8820;DHT22;4446;50.876;4.736;2024-02-28T07:06:43;1.20;99.90
8820;DHT22;4446;50.876;4.736;2024-02-28T07:09:11;1.30;99.90
8820;DHT22;4446;50.876;4.736;2024-02-28T07:11:41;1.50;99.90
8820;DHT22;4446;50.876;4.736;2024-02-28T07:14:08;1.70;99.90
8820;DHT22;4446;50.876;4.736;2024-02-28T07:16:36;1.80;99.90
8820;DHT22;4446;50.876;4.736;2024-02-28T07:19:03;1.90;99.90
8820;DHT22;4446;50.876;4.736;2024-02-28T07:21:30;1.90;99.90
8820;DHT22;4446;50.876;4.736;2024-02-28T07:23:57;2.10;99.90
8820;DHT22;4446;50.876;4.736;2024-02-28T07:26:24;2.20;99.90
8820;DHT22;4446;50.876;4.736;2024-02-28T07:28:51;2.30;99.90
8820;DHT22;4446;50.876;4.736;2024-02-28T07:31:19;2.40;99.90
8820;DHT22;4446;50.876;4.736;2024-02-28T07:33:49;2.60;99.90
8820;DHT22;4446;50.876;4.736;2024-02-28T07:36:16;2.70;99.90
8820;DHT22;4446;50.876;4.736;2024-02-28T07:38:43;2.80;99.90
8820;DHT22;4446;50.876;4.736;2024-02-28T07:41:10;2.90;99.90
8820;DHT22;4446;50.876;4.736;2024-02-28T07:43:37;3.00;99.90
8820;DHT22;4446;50.876;4.736;2024-02-28T07:46:09;3.10;99.90
8820;DHT22;4446;50.876;4.736;2024-02-28T07:48:36;3.20;99.90
8820;DHT22;4446;50.876;4.736;2024-02-28T07:51:06;3.30;99.90
8820;DHT22;4446;50.876;4.736;2024-02-28T07:53:33;3.30;99.90
8820;DHT22;4446;50.876;4.736;2024-02-28T07:55:59;3.40;99.90
8820;DHT22;4446;50.876;4.736;2024-02-28T07:58:26;3.40;99.90
8820;DHT22;4446;50.876;4.736;2024-02-28T08:00:53;3.50;99.90
8820;DHT22;4446;50.876;4.736;2024-02-28T08:03:20;3.60;99.90
8820;DHT22;4446;50.876;4.736;2024-02-28T08:05:47;3.60;99.90
8820;DHT22;4446;50.876;4.736;2024-02-28T08:08:16;3.70;99.90
8820;DHT22;4446;50.876;4.736;2024-02-28T08:10:43;3.80;99.90
8820;DHT22;4446;50.876;4.736;2024-02-28T08:13:11;3.90;99.90
8820;DHT22;4446;50.876;4.736;2024-02-28T08:15:38;3.90;99.90
8820;DHT22;4446;50.876;4.736;2024-02-28T08:18:05;4.00;99.90
8820;DHT22;4446;50.876;4.736;2024-02-28T08:20:31;4.10;99.90
8820;DHT22;4446;50.876;4.736;2024-02-28T08:22:58;4.30;99.90
8820;DHT22;4446;50.876;4.736;2024-02-28T08:25:27;4.30;99.90
8820;DHT22;4446;50.876;4.736;2024-02-28T08:27:54;4.40;99.90
8820;DHT22;4446;50.876;4.736;2024-02-28T08:30:21;4.50;99.90
8820;DHT22;4446;50.876;4.736;2024-02-28T08:32:48;4.60;99.90
8820;DHT22;4446;50.876;4.736;2024-02-28T08:35:16;4.70;99.90
8820;DHT22;4446;50.876;4.736;2024-02-28T08:37:43;4.90;99.90
8820;DHT22;4446;50.876;4.736;2024-02-28T08:40:10;5.00;99.90
8820;DHT22;4446;50.876;4.736;2024-02-28T08:42:39;5.20;99.90
8820;DHT22;4446;50.876;4.736;2024-02-28T08:45:07;5.40;99.90
8820;DHT22;4446;50.876;4.736;2024-02-28T08:47:34;5.60;99.90
8820;DHT22;4446;50.876;4.736;2024-02-28T08:50:01;5.80;99.90
8820;DHT22;4446;50.876;4.736;2024-02-28T08:52:28;5.80;99.90
8820;DHT22;4446;50.876;4.736;2024-02-28T08:54:55;5.90;99.90
8820;DHT22;4446;50.876;4.736;2024-02-28T08:57:22;6.10;99.90
8820;DHT22;4446;50.876;4.736;2024-02-28T08:59:51;6.00;99.90
8820;DHT22;4446;50.876;4.736;2024-02-28T09:02:18;6.20;99.90
8820;DHT22;4446;50.876;4.736;2024-02-28T09:04:45;6.10;99.90
8820;DHT22;4446;50.876;4.736;2024-02-28T09:07:16;6.20;99.90
8820;DHT22;4446;50.876;4.736;2024-02-28T09:09:45;6.40;99.90
8820;DHT22;4446;50.876;4.736;2024-02-28T09:12:12;6.40;99.90
8820;DHT22;4446;50.876;4.736;2024-02-28T09:14:39;6.60;99.90
8820;DHT22;4446;50.876;4.736;2024-02-28T09:17:07;6.70;99.90
8820;DHT22;4446;50.876;4.736;2024-02-28T09:19:34;6.70;99.90
8820;DHT22;4446;50.876;4.736;2024-02-28T09:22:01;6.80;99.90
8820;DHT22;4446;50.876;4.736;2024-02-28T09:24:28;6.90;99.90
8820;DHT22;4446;50.876;4.736;2024-02-28T09:26:55;6.90;99.90
8820;DHT22;4446;50.876;4.736;2024-02-28T09:29:22;7.00;99.90
8820;DHT22;4446;50.876;4.736;2024-02-28T09:31:49;7.10;99.90
8820;DHT22;4446;50.876;4.736;2024-02-28T09:34:17;7.10;99.90
8820;DHT22;4446;50.876;4.736;2024-02-28T09:36:44;7.30;99.90
8820;DHT22;4446;50.876;4.736;2024-02-28T09:39:12;7.20;99.90
8820;DHT22;4446;50.876;4.736;2024-02-28T09:41:41;7.10;99.90
8820;DHT22;4446;50.876;4.736;2024-02-28T09:44:08;7.10;99.90
8820;DHT22;4446;50.876;4.736;2024-02-28T09:46:35;7.20;99.90
8820;DHT22;4446;50.876;4.736;2024-02-28T09:49:03;7.30;99.90
8820;DHT22;4446;50.876;4.736;2024-02-28T09:51:33;7.30;99.90
8820;DHT22;4446;50.876;4.736;2024-02-28T09:54:00;7.40;99.90
8820;DHT22;4446;50.876;4.736;2024-02-28T09:56:28;7.40;99.90
8820;DHT22;4446;50.876;4.736;2024-02-28T09:58:55;7.50;99.90
8820;DHT22;4446;50.876;4.736;2024-02-28T10:01:22;7.50;99.90
8820;DHT22;4446;50.876;4.736;2024-02-28T10:03:51;7.50;99.90
8820;DHT22;4446;50.876;4.736;2024-02-28T10:06:18;7.50;99.90
8820;DHT22;4446;50.876;4.736;2024-02-28T10:08:47;7.60;99.90
8820;DHT22;4446;50.876;4.736;2024-02-28T10:11:17;7.50;99.90
8820;DHT22;4446;50.876;4.736;2024-02-28T10:13:46;7.60;99.90
8820;DHT22;4446;50.876;4.736;2024-02-28T10:16:13;7.70;99.90
8820;DHT22;4446;50.876;4.736;2024-02-28T10:18:42;7.70;99.90
8820;DHT22;4446;50.876;4.736;2024-02-28T10:21:09;7.70;99.90
8820;DHT22;4446;50.876;4.736;2024-02-28T10:23:38;7.70;99.90
8820;DHT22;4446;50.876;4.736;2024-02-28T10:26:09;7.80;99.90
8820;DHT22;4446;50.876;4.736;2024-02-28T10:28:36;7.90;99.90
8820;DHT22;4446;50.876;4.736;2024-02-28T10:31:04;8.20;99.90
8820;DHT22;4446;50.876;4.736;2024-02-28T10:33:31;8.30;99.90
8820;DHT22;4446;50.876;4.736;2024-02-28T10:35:59;8.40;99.90
8820;DHT22;4446;50.876;4.736;2024-02-28T10:38:27;8.50;99.90
8820;DHT22;4446;50.876;4.736;2024-02-28T10:40:54;8.50;99.90
8820;DHT22;4446;50.876;4.736;2024-02-28T10:43:23;8.50;99.90
8820;DHT22;4446;50.876;4.736;2024-02-28T10:45:51;8.40;99.90
8820;DHT22;4446;50.876;4.736;2024-02-28T10:48:20;8.40;99.90
8820;DHT22;4446;50.876;4.736;2024-02-28T10:50:47;8.50;99.90
8820;DHT22;4446;50.876;4.736;2024-02-28T10:53:14;8.50;99.90
8820;DHT22;4446;50.876;4.736;2024-02-28T10:55:42;8.70;99.90
8820;DHT22;4446;50.876;4.736;2024-02-28T10:58:14;8.80;99.90
8820;DHT22;4446;50.876;4.736;2024-02-28T11:00:43;8.90;99.90
8820;DHT22;4446;50.876;4.736;2024-02-28T11:03:14;9.00;99.90
8820;DHT22;4446;50.876;4.736;2024-02-28T11:05:43;9.20;99.90
8820;DHT22;4446;50.876;4.736;2024-02-28T11:08:19;9.30;99.90
8820;DHT22;4446;50.876;4.736;2024-02-28T11:10:54;9.40;99.90
8820;DHT22;4446;50.876;4.736;2024-02-28T11:13:22;9.60;99.90
8820;DHT22;4446;50.876;4.736;2024-02-28T11:15:50;9.80;99.90
8820;DHT22;4446;50.876;4.736;2024-02-28T11:18:17;9.80;99.90
8820;DHT22;4446;50.876;4.736;2024-02-28T11:20:44;9.80;99.90
8820;DHT22;4446;50.876;4.736;2024-02-28T11:23:15;9.90;99.90
8820;DHT22;4446;50.876;4.736;2024-02-28T11:25:43;10.10;99.90
8820;DHT22;4446;50.876;4.736;2024-02-28T11:28:10;10.20;99.90
8820;DHT22;4446;50.876;4.736;2024-02-28T11:30:37;10.10;99.90
8820;DHT22;4446;50.876;4.736;2024-02-28T11:33:06;10.10;99.90
8820;DHT22;4446;50.876;4.736;2024-02-28T11:35:34;10.20;99.90
8820;DHT22;4446;50.876;4.736;2024-02-28T11:38:02;10.40;99.90
8820;DHT22;4446;50.876;4.736;2024-02-28T11:40:29;10.30;99.90
8820;DHT22;4446;50.876;4.736;2024-02-28T11:42:56;10.20;99.90
8820;DHT22;4446;50.876;4.736;2024-02-28T11:45:25;10.30;99.90
8820;DHT22;4446;50.876;4.736;2024-02-28T11:47:52;10.20;99.90
8820;DHT22;4446;50.876;4.736;2024-02-28T11:50:20;10.40;99.90
8820;DHT22;4446;50.876;4.736;2024-02-28T11:52:49;10.20;99.90
8820;DHT22;4446;50.876;4.736;2024-02-28T11:55:16;10.10;99.90
8820;DHT22;4446;50.876;4.736;2024-02-28T11:57:42;10.20;99.90
8820;DHT22;4446;50.876;4.736;2024-02-28T12:00:10;10.10;99.90
8820;DHT22;4446;50.876;4.736;2024-02-28T12:02:38;10.00;99.90
8820;DHT22;4446;50.876;4.736;2024-02-28T12:05:06;10.00;99.90
8820;DHT22;4446;50.876;4.736;2024-02-28T12:07:39;9.90;99.90
8820;DHT22;4446;50.876;4.736;2024-02-28T12:10:08;9.90;99.90
8820;DHT22;4446;50.876;4.736;2024-02-28T12:12:35;9.80;99.90
8820;DHT22;4446;50.876;4.736;2024-02-28T12:15:03;9.60;99.90
8820;DHT22;4446;50.876;4.736;2024-02-28T12:17:31;9.60;99.90
8820;DHT22;4446;50.876;4.736;2024-02-28T12:19:59;9.80;99.90
8820;DHT22;4446;50.876;4.736;2024-02-28T12:22:26;9.90;99.90
8820;DHT22;4446;50.876;4.736;2024-02-28T12:24:55;9.90;99.90
8820;DHT22;4446;50.876;4.736;2024-02-28T12:27:22;9.80;99.90
8820;DHT22;4446;50.876;4.736;2024-02-28T12:29:49;9.70;99.90
8820;DHT22;4446;50.876;4.736;2024-02-28T12:32:16;9.80;99.90
8820;DHT22;4446;50.876;4.736;2024-02-28T12:34:43;10.00;99.90
8820;DHT22;4446;50.876;4.736;2024-02-28T12:37:11;10.00;99.90
8820;DHT22;4446;50.876;4.736;2024-02-28T12:39:38;10.10;99.90
8820;DHT22;4446;50.876;4.736;2024-02-28T12:42:07;10.20;99.90
8820;DHT22;4446;50.876;4.736;2024-02-28T12:44:34;10.30;99.90
8820;DHT22;4446;50.876;4.736;2024-02-28T12:47:01;10.30;99.90
8820;DHT22;4446;50.876;4.736;2024-02-28T12:49:32;10.40;99.90
8820;DHT22;4446;50.876;4.736;2024-02-28T12:52:00;10.40;99.90
8820;DHT22;4446;50.876;4.736;2024-02-28T12:54:28;10.10;99.90
8820;DHT22;4446;50.876;4.736;2024-02-28T12:56:55;10.10;99.90
8820;DHT22;4446;50.876;4.736;2024-02-28T12:59:27;10.00;99.90
8820;DHT22;4446;50.876;4.736;2024-02-28T13:01:55;10.40;99.90
8820;DHT22;4446;50.876;4.736;2024-02-28T13:04:22;10.40;99.90
8820;DHT22;4446;50.876;4.736;2024-02-28T13:06:51;10.20;99.90
8820;DHT22;4446;50.876;4.736;2024-02-28T13:09:19;10.30;99.90
8820;DHT22;4446;50.876;4.736;2024-02-28T13:11:48;10.30;99.90
8820;DHT22;4446;50.876;4.736;2024-02-28T13:14:15;10.60;99.90
8820;DHT22;4446;50.876;4.736;2024-02-28T13:16:46;11.00;99.90
8820;DHT22;4446;50.876;4.736;2024-02-28T13:19:14;11.30;99.90
8820;DHT22;4446;50.876;4.736;2024-02-28T13:21:41;11.30;99.90
8820;DHT22;4446;50.876;4.736;2024-02-28T13:24:12;11.30;99.90
8820;DHT22;4446;50.876;4.736;2024-02-28T13:26:41;11.10;99.90
8820;DHT22;4446;50.876;4.736;2024-02-28T13:29:08;11.20;99.90
8820;DHT22;4446;50.876;4.736;2024-02-28T13:31:35;11.00;99.90
8820;DHT22;4446;50.876;4.736;2024-02-28T13:34:03;10.80;99.90
8820;DHT22;4446;50.876;4.736;2024-02-28T13:36:31;10.90;99.90
8820;DHT22;4446;50.876;4.736;2024-02-28T13:39:01;10.80;99.90
8820;DHT22;4446;50.876;4.736;2024-02-28T13:41:29;10.70;99.90
8820;DHT22;4446;50.876;4.736;2024-02-28T13:43:55;10.70;99.90
8820;DHT22;4446;50.876;4.736;2024-02-28T13:46:22;10.70;99.90
8820;DHT22;4446;50.876;4.736;2024-02-28T13:48:49;10.80;99.90
8820;DHT22;4446;50.876;4.736;2024-02-28T13:51:18;10.70;99.90
8820;DHT22;4446;50.876;4.736;2024-02-28T13:53:45;10.90;99.90
8820;DHT22;4446;50.876;4.736;2024-02-28T13:56:12;10.90;99.90
8820;DHT22;4446;50.876;4.736;2024-02-28T13:58:39;11.00;99.90
8820;DHT22;4446;50.876;4.736;2024-02-28T14:01:06;11.00;99.90
8820;DHT22;4446;50.876;4.736;2024-02-28T14:03:35;11.30;99.90
8820;DHT22;4446;50.876;4.736;2024-02-28T14:06:03;11.50;99.90
8820;DHT22;4446;50.876;4.736;2024-02-28T14:08:31;11.60;99.90
8820;DHT22;4446;50.876;4.736;2024-02-28T14:10:58;11.40;99.90
8820;DHT22;4446;50.876;4.736;2024-02-28T14:13:25;11.30;99.90
8820;DHT22;4446;50.876;4.736;2024-02-28T14:15:52;11.40;99.90
8820;DHT22;4446;50.876;4.736;2024-02-28T14:18:19;11.50;99.90
8820;DHT22;4446;50.876;4.736;2024-02-28T14:20:46;11.80;99.90
8820;DHT22;4446;50.876;4.736;2024-02-28T14:23:14;11.90;99.90
8820;DHT22;4446;50.876;4.736;2024-02-28T14:25:42;11.90;99.90
8820;DHT22;4446;50.876;4.736;2024-02-28T14:28:09;11.80;99.90
8820;DHT22;4446;50.876;4.736;2024-02-28T14:30:36;11.70;99.90
8820;DHT22;4446;50.876;4.736;2024-02-28T14:33:03;11.80;99.90
8820;DHT22;4446;50.876;4.736;2024-02-28T14:35:30;12.00;99.90
8820;DHT22;4446;50.876;4.736;2024-02-28T14:37:57;11.60;99.90
8820;DHT22;4446;50.876;4.736;2024-02-28T14:40:24;11.70;99.90
8820;DHT22;4446;50.876;4.736;2024-02-28T14:42:53;11.50;99.90
8820;DHT22;4446;50.876;4.736;2024-02-28T14:45:20;11.60;99.90
8820;DHT22;4446;50.876;4.736;2024-02-28T14:47:47;11.60;99.90
8820;DHT22;4446;50.876;4.736;2024-02-28T14:50:14;11.70;99.90
8820;DHT22;4446;50.876;4.736;2024-02-28T14:52:41;11.50;99.90
8820;DHT22;4446;50.876;4.736;2024-02-28T14:55:10;11.40;99.90
8820;DHT22;4446;50.876;4.736;2024-02-28T14:57:38;11.40;99.90
8820;DHT22;4446;50.876;4.736;2024-02-28T15:00:08;11.40;99.90
8820;DHT22;4446;50.876;4.736;2024-02-28T15:02:39;11.50;99.90
8820;DHT22;4446;50.876;4.736;2024-02-28T15:05:07;11.60;99.90
8820;DHT22;4446;50.876;4.736;2024-02-28T15:07:35;11.90;99.90
8820;DHT22;4446;50.876;4.736;2024-02-28T15:10:06;12.00;99.90
8820;DHT22;4446;50.876;4.736;2024-02-28T15:12:35;12.10;99.90
8820;DHT22;4446;50.876;4.736;2024-02-28T15:15:04;11.90;99.90
8820;DHT22;4446;50.876;4.736;2024-02-28T15:17:33;11.90;99.90
8820;DHT22;4446;50.876;4.736;2024-02-28T15:20:00;11.80;99.90
8820;DHT22;4446;50.876;4.736;2024-02-28T15:22:29;11.80;99.90
8820;DHT22;4446;50.876;4.736;2024-02-28T15:24:56;11.80;99.90
8820;DHT22;4446;50.876;4.736;2024-02-28T15:27:23;11.80;99.90
8820;DHT22;4446;50.876;4.736;2024-02-28T15:29:50;11.80;99.90
8820;DHT22;4446;50.876;4.736;2024-02-28T15:32:17;11.80;99.90
8820;DHT22;4446;50.876;4.736;2024-02-28T15:34:45;11.70;99.90
8820;DHT22;4446;50.876;4.736;2024-02-28T15:37:12;11.60;99.90
8820;DHT22;4446;50.876;4.736;2024-02-28T15:39:39;11.20;99.90
8820;DHT22;4446;50.876;4.736;2024-02-28T15:42:07;11.20;99.90
8820;DHT22;4446;50.876;4.736;2024-02-28T15:44:34;11.20;99.90
8820;DHT22;4446;50.876;4.736;2024-02-28T15:47:01;11.20;99.90
8820;DHT22;4446;50.876;4.736;2024-02-28T15:49:28;11.20;99.90
8820;DHT22;4446;50.876;4.736;2024-02-28T15:51:56;11.10;99.90
8820;DHT22;4446;50.876;4.736;2024-02-28T15:54:27;11.00;99.90
8820;DHT22;4446;50.876;4.736;2024-02-28T15:56:55;10.80;99.90
8820;DHT22;4446;50.876;4.736;2024-02-28T15:59:24;10.70;99.90
8820;DHT22;4446;50.876;4.736;2024-02-28T16:01:52;10.70;99.90
8820;DHT22;4446;50.876;4.736;2024-02-28T16:04:19;10.60;99.90
8820;DHT22;4446;50.876;4.736;2024-02-28T16:06:46;10.80;99.90
8820;DHT22;4446;50.876;4.736;2024-02-28T16:09:18;10.80;99.90
8820;DHT22;4446;50.876;4.736;2024-02-28T16:11:48;10.50;99.90
8820;DHT22;4446;50.876;4.736;2024-02-28T16:14:15;10.40;99.90